Time;durP1;ratioP1;P1;durP2;ratioP2;P2;SDS_P1;SDS_P2;PMS_P1;PMS_P2;Temp;Humidity;BMP_temperature;BMP_pressure;BME280_temperature;BME280_humidity;BME280_pressure;Samples;Min_cycle;Max_cycle;Signal;HPM_P1;HPM_P2
2023/03/06 00:01:47;;;;;;;2.75;2.53;;;8.70;62.00;;;;;;5069592;28;20031;-78
2023/03/06 00:04:14;;;;;;;3.25;2.40;;;8.70;62.00;;;;;;5086474;28;20073;-79
2023/03/06 00:06:40;;;;;;;2.78;2.22;;;8.70;62.00;;;;;;5065866;28;20048;-78
2023/03/06 00:09:08;;;;;;;2.47;2.20;;;8.70;62.00;;;;;;5087187;28;20036;-78
2023/03/06 00:11:34;;;;;;;3.40;2.33;;;8.70;62.00;;;;;;5087308;28;20448;-80
2023/03/06 00:14:00;;;;;;;2.95;2.42;;;8.70;61.90;;;;;;5085215;28;20037;-78
2023/03/06 00:16:26;;;;;;;3.42;2.28;;;8.70;61.90;;;;;;5085133;28;20036;-79
2023/03/06 00:18:51;;;;;;;2.53;1.98;;;8.70;61.80;;;;;;5046170;28;20123;-80
2023/03/06 00:21:17;;;;;;;2.90;2.30;;;8.70;61.70;;;;;;5050786;28;20041;-81
2023/03/06 00:23:43;;;;;;;2.42;2.03;;;8.70;61.70;;;;;;5065204;28;20498;-78
2023/03/06 00:26:10;;;;;;;2.75;2.20;;;8.70;61.60;;;;;;5067914;28;20540;-80
2023/03/06 00:28:37;;;;;;;2.50;2.28;;;8.70;61.50;;;;;;5063349;28;20031;-79
2023/03/06 00:31:03;;;;;;;2.53;2.00;;;8.70;61.50;;;;;;5066476;28;20044;-79
2023/03/06 00:33:29;;;;;;;2.60;2.00;;;8.70;61.50;;;;;;5068051;28;20035;-80
2023/03/06 00:35:55;;;;;;;2.63;2.30;;;8.70;61.50;;;;;;5066683;28;20101;-79
2023/03/06 00:38:21;;;;;;;3.97;2.55;;;8.70;61.60;;;;;;5050317;28;20510;-78
2023/03/06 00:40:48;;;;;;;3.00;2.22;;;8.70;61.80;;;;;;5066319;28;20051;-79
2023/03/06 00:43:14;;;;;;;2.70;2.28;;;8.70;61.80;;;;;;5067748;28;20536;-79
2023/03/06 00:45:41;;;;;;;2.40;2.13;;;8.70;61.80;;;;;;5084475;28;20490;-79
2023/03/06 00:48:07;;;;;;;3.72;2.42;;;8.70;61.80;;;;;;5067310;28;20171;-79
2023/03/06 00:50:34;;;;;;;2.75;2.30;;;8.70;61.80;;;;;;5068329;28;20035;-78
2023/03/06 00:53:00;;;;;;;2.88;2.30;;;8.70;61.70;;;;;;5048859;28;20040;-78
2023/03/06 00:55:26;;;;;;;3.05;2.20;;;8.70;61.70;;;;;;5063560;28;20040;-78
2023/03/06 00:57:52;;;;;;;2.58;2.10;;;8.70;61.60;;;;;;5069828;28;20036;-79
2023/03/06 01:00:19;;;;;;;2.55;2.35;;;8.70;61.50;;;;;;5067451;28;20081;-79
2023/03/06 01:02:45;;;;;;;5.20;2.40;;;8.70;61.50;;;;;;5085686;28;20043;-78
2023/03/06 01:05:12;;;;;;;2.58;2.15;;;8.70;61.40;;;;;;5052072;28;20507;-79
2023/03/06 01:07:39;;;;;;;2.13;1.88;;;8.70;61.30;;;;;;5080709;28;20036;-79
2023/03/06 01:10:06;;;;;;;2.67;2.20;;;8.70;61.30;;;;;;5050870;28;20059;-79
2023/03/06 01:12:32;;;;;;;2.10;1.90;;;8.70;61.20;;;;;;5083749;28;20025;-79
2023/03/06 01:14:58;;;;;;;2.78;1.88;;;8.70;61.10;;;;;;5086292;28;21507;-80
2023/03/06 01:17:25;;;;;;;2.00;1.80;;;8.70;61.20;;;;;;5068150;28;20556;-79
2023/03/06 01:19:50;;;;;;;1.80;1.65;;;8.70;61.20;;;;;;5050412;28;20032;-79
2023/03/06 01:22:16;;;;;;;4.95;2.08;;;8.70;61.30;;;;;;5049842;28;20055;-79
2023/03/06 01:24:42;;;;;;;2.88;1.77;;;8.70;61.30;;;;;;5065972;28;20739;-79
2023/03/06 01:27:08;;;;;;;2.92;2.10;;;8.70;61.30;;;;;;5080752;28;20530;-79
2023/03/06 01:29:34;;;;;;;4.78;2.15;;;8.70;61.20;;;;;;5064863;28;20036;-79
2023/03/06 01:32:00;;;;;;;2.72;1.90;;;8.70;61.20;;;;;;5065688;28;20035;-80
2023/03/06 01:34:26;;;;;;;2.75;2.10;;;8.70;61.20;;;;;;5064249;28;20036;-79
2023/03/06 01:36:52;;;;;;;4.30;1.98;;;8.70;61.10;;;;;;5065666;28;20032;-79
2023/03/06 01:39:18;;;;;;;2.47;2.00;;;8.70;61.10;;;;;;5050636;28;20032;-79
2023/03/06 01:41:45;;;;;;;2.25;2.03;;;8.70;61.60;;;;;;5064578;28;20047;-80
2023/03/06 01:44:12;;;;;;;2.38;1.92;;;8.70;61.00;;;;;;5065136;28;20033;-79
2023/03/06 01:46:43;;;;;;;6.53;2.17;;;8.70;60.90;;;;;;5081382;28;20562;-78
2023/03/06 01:49:11;;;;;;;3.30;2.10;;;8.70;61.00;;;;;;5063229;28;20457;-80
2023/03/06 01:51:59;;;;;;;2.60;2.15;;;8.70;61.10;;;;;;5083902;28;20028;-79
2023/03/06 01:54:40;;;;;;;2.70;1.75;;;8.70;61.10;;;;;;5051217;28;20040;-78
2023/03/06 01:57:13;;;;;;;3.92;2.30;;;8.70;61.10;;;;;;5049522;28;20680;-78
2023/03/06 01:59:41;;;;;;;3.58;1.98;;;8.70;61.00;;;;;;5087944;28;20033;-78
2023/03/06 02:02:10;;;;;;;1.98;1.77;;;8.70;60.90;;;;;;5088282;28;20054;-78
2023/03/06 02:04:38;;;;;;;2.08;1.88;;;8.70;60.90;;;;;;5077568;28;20510;-79
2023/03/06 02:07:06;;;;;;;2.28;1.73;;;8.70;60.90;;;;;;5067726;28;20032;-78
2023/03/06 02:09:34;;;;;;;2.10;1.90;;;8.70;60.80;;;;;;5067879;28;20039;-79
2023/03/06 02:12:02;;;;;;;2.55;2.15;;;8.70;60.80;;;;;;5088446;28;20520;-79
2023/03/06 02:14:28;;;;;;;3.95;2.30;;;8.70;60.80;;;;;;5088688;28;20044;-80
2023/03/06 02:16:54;;;;;;;3.10;2.08;;;8.70;60.80;;;;;;5071670;28;20536;-81
2023/03/06 02:20:18;;;;;;;2.35;2.10;;;8.70;60.80;;;;;;5085133;28;20040;-80
2023/03/06 02:23:21;;;;;;;3.03;2.35;;;8.70;60.70;;;;;;4951842;28;20046;-80
2023/03/06 02:25:49;;;;;;;2.53;2.25;;;8.70;60.60;;;;;;4967796;28;20027;-79
2023/03/06 02:28:20;;;;;;;2.42;2.15;;;8.70;60.50;;;;;;4947990;28;20041;-79
2023/03/06 02:30:49;;;;;;;2.70;2.30;;;8.70;60.60;;;;;;4967905;28;20042;-78
2023/03/06 02:33:19;;;;;;;2.35;2.10;;;8.70;60.70;;;;;;4956390;28;20034;-78
2023/03/06 02:35:55;;;;;;;2.67;2.35;;;8.60;60.60;;;;;;4967217;28;20039;-80
2023/03/06 02:38:25;;;;;;;2.40;2.20;;;8.70;60.70;;;;;;4951652;28;20045;-79
2023/03/06 02:40:52;;;;;;;3.33;2.55;;;8.70;60.60;;;;;;4961828;28;20085;-80
2023/03/06 02:43:26;;;;;;;2.67;2.47;;;8.60;60.50;;;;;;4935810;28;20038;-79
2023/03/06 02:45:52;;;;;;;4.90;2.22;;;8.70;60.50;;;;;;4967426;28;20347;-80
2023/03/06 02:48:19;;;;;;;2.25;2.03;;;8.70;60.50;;;;;;4952498;28;20636;-80
2023/03/06 02:50:46;;;;;;;2.90;2.47;;;8.70;60.50;;;;;;4967094;28;20037;-78
2023/03/06 02:53:14;;;;;;;2.67;2.47;;;8.60;60.30;;;;;;4995100;28;20550;-78
2023/03/06 02:55:40;;;;;;;3.47;2.53;;;8.70;60.30;;;;;;5068906;28;20040;-78
2023/03/06 02:58:07;;;;;;;2.65;2.30;;;8.60;60.30;;;;;;5087293;28;20093;-80
2023/03/06 03:00:33;;;;;;;2.70;2.35;;;8.60;60.30;;;;;;5033862;28;20152;-79
2023/03/06 03:03:03;;;;;;;2.38;2.17;;;8.60;60.40;;;;;;5049309;28;20028;-79
2023/03/06 03:05:30;;;;;;;2.88;2.53;;;8.60;60.40;;;;;;5051562;28;20024;-79
2023/03/06 03:08:02;;;;;;;3.08;2.45;;;8.60;60.50;;;;;;5037025;28;20060;-79
2023/03/06 03:10:28;;;;;;;2.50;2.28;;;8.60;60.50;;;;;;5052485;28;20028;-79
2023/03/06 03:12:56;;;;;;;2.30;1.95;;;8.60;60.50;;;;;;5085311;28;20032;-79
2023/03/06 03:15:24;;;;;;;2.85;1.90;;;8.60;60.50;;;;;;5036107;28;20127;-80
2023/03/06 03:17:50;;;;;;;3.90;2.20;;;8.60;60.50;;;;;;5054461;28;20028;-79
2023/03/06 03:20:19;;;;;;;2.15;1.98;;;8.60;60.50;;;;;;5068879;28;20514;-80
2023/03/06 03:22:50;;;;;;;2.83;2.60;;;8.60;60.50;;;;;;5087546;28;20028;-80
2023/03/06 03:25:16;;;;;;;3.13;2.10;;;8.60;60.40;;;;;;5052272;28;20031;-79
2023/03/06 03:27:43;;;;;;;2.22;2.03;;;8.60;60.50;;;;;;5087398;28;20039;-80
2023/03/06 03:30:10;;;;;;;2.53;2.33;;;8.60;60.50;;;;;;5081252;28;20032;-79
2023/03/06 03:32:36;;;;;;;2.20;2.05;;;8.60;60.50;;;;;;5067587;28;20036;-79
2023/03/06 03:35:05;;;;;;;2.20;1.90;;;8.60;60.50;;;;;;5053126;28;20514;-80
2023/03/06 03:37:33;;;;;;;2.30;2.20;;;8.60;60.50;;;;;;5069979;28;20494;-79
2023/03/06 03:40:00;;;;;;;2.38;2.15;;;8.60;60.50;;;;;;5065265;28;20040;-78
2023/03/06 03:42:26;;;;;;;2.30;2.10;;;8.60;60.70;;;;;;5087344;28;20024;-80
2023/03/06 03:44:53;;;;;;;2.58;2.08;;;8.60;60.70;;;;;;5035127;28;20536;-79
2023/03/06 03:47:21;;;;;;;2.38;2.00;;;8.60;60.80;;;;;;5081236;28;20040;-79
2023/03/06 03:49:47;;;;;;;2.40;2.20;;;8.60;60.80;;;;;;5061785;28;20039;-78
2023/03/06 03:52:13;;;;;;;3.15;2.22;;;8.60;60.80;;;;;;5047101;28;20032;-78
2023/03/06 03:54:40;;;;;;;2.67;2.47;;;8.60;60.90;;;;;;5049327;28;20039;-79
2023/03/06 03:57:06;;;;;;;2.47;2.20;;;8.60;60.90;;;;;;5082217;28;20502;-79
2023/03/06 03:59:36;;;;;;;2.88;2.53;;;8.60;60.90;;;;;;5067984;28;20025;-78
2023/03/06 04:02:22;;;;;;;;;;;8.60;60.90;;;;;;5081226;28;20027;-80
2023/03/06 04:04:59;;;;;;;2.40;2.20;;;8.60;61.00;;;;;;5082565;28;20395;-79
2023/03/06 04:07:26;;;;;;;2.88;2.65;;;8.60;60.90;;;;;;5051187;28;20082;-87
2023/03/06 04:09:52;;;;;;;2.38;2.17;;;8.60;61.00;;;;;;5037075;28;20036;-85
2023/03/06 04:12:19;;;;;;;3.00;2.78;;;8.60;61.30;;;;;;5050906;28;20032;-82
2023/03/06 04:14:46;;;;;;;2.72;2.35;;;8.50;61.30;;;;;;5067538;28;20066;-83
2023/03/06 04:17:12;;;;;;;2.60;2.40;;;8.60;61.50;;;;;;5051999;28;20047;-84
2023/03/06 04:19:38;;;;;;;3.63;2.80;;;8.50;61.50;;;;;;5051532;28;20027;-80
2023/03/06 04:22:04;;;;;;;3.55;2.53;;;8.50;61.60;;;;;;5068012;28;20406;-82
2023/03/06 04:24:33;;;;;;;2.90;2.53;;;8.60;61.70;;;;;;5051460;28;20113;-84
2023/03/06 04:27:00;;;;;;;2.65;2.45;;;8.50;61.70;;;;;;5049346;28;20028;-83
2023/03/06 04:29:26;;;;;;;3.55;2.85;;;8.50;61.60;;;;;;5048549;28;20036;-85
2023/03/06 04:31:52;;;;;;;3.03;2.72;;;8.50;61.70;;;;;;5067696;28;20036;-84
2023/03/06 04:34:18;;;;;;;2.58;2.38;;;8.50;61.70;;;;;;5066524;28;20523;-81
2023/03/06 04:36:45;;;;;;;3.75;2.70;;;8.50;61.70;;;;;;5078051;28;20040;-89
2023/03/06 04:39:14;;;;;;;4.53;3.05;;;8.50;61.70;;;;;;5039072;28;20043;-86
2023/03/06 04:41:41;;;;;;;4.63;2.85;;;8.50;61.70;;;;;;5051988;28;20081;-78
2023/03/06 04:44:07;;;;;;;3.00;2.70;;;8.60;61.70;;;;;;5085261;28;20032;-83
2023/03/06 04:46:34;;;;;;;4.38;2.65;;;8.60;61.70;;;;;;5086381;28;20042;-81
2023/03/06 04:49:00;;;;;;;3.85;2.70;;;8.50;61.70;;;;;;5064602;28;20035;-80
2023/03/06 04:51:26;;;;;;;5.45;2.80;;;8.60;61.90;;;;;;5083209;28;20028;-79
2023/03/06 04:53:52;;;;;;;3.22;2.40;;;8.60;62.10;;;;;;5061172;28;20031;-79
2023/03/06 04:56:18;;;;;;;3.20;2.85;;;8.60;62.40;;;;;;5083519;28;20515;-79
2023/03/06 04:58:44;;;;;;;4.18;2.95;;;8.60;62.80;;;;;;5085538;28;20406;-79
2023/03/06 05:01:11;;;;;;;5.07;3.08;;;8.60;63.00;;;;;;5084157;28;20039;-80
2023/03/06 05:03:37;;;;;;;4.35;3.13;;;8.60;63.20;;;;;;5085769;28;20032;-79
2023/03/06 05:06:04;;;;;;;3.50;2.83;;;8.60;63.30;;;;;;5065548;28;20158;-80
2023/03/06 05:08:30;;;;;;;6.13;3.60;;;8.60;63.50;;;;;;5084104;28;20036;-79
2023/03/06 05:10:58;;;;;;;4.82;3.13;;;8.60;63.60;;;;;;5084868;28;20452;-80
2023/03/06 05:13:25;;;;;;;7.10;3.10;;;8.60;63.70;;;;;;5085188;28;20047;-80
2023/03/06 05:15:51;;;;;;;4.97;3.30;;;8.60;63.80;;;;;;5084506;28;20094;-80
2023/03/06 05:18:18;;;;;;;3.72;3.30;;;8.60;63.70;;;;;;5067108;28;20039;-80
2023/03/06 05:20:44;;;;;;;3.63;2.95;;;8.60;63.70;;;;;;5082384;28;20040;-79
2023/03/06 05:23:10;;;;;;;3.25;2.78;;;8.60;63.70;;;;;;5085488;28;20119;-79
2023/03/06 05:25:39;;;;;;;2.85;2.53;;;8.60;63.70;;;;;;5084398;28;20522;-79
2023/03/06 05:28:06;;;;;;;5.20;3.10;;;8.60;63.70;;;;;;5084363;28;20082;-80
2023/03/06 05:30:32;;;;;;;3.20;2.70;;;8.60;63.70;;;;;;5084549;28;20411;-80
2023/03/06 05:32:59;;;;;;;5.65;3.40;;;8.60;63.60;;;;;;5084828;28;20081;-80
2023/03/06 05:35:25;;;;;;;4.10;3.10;;;8.60;63.50;;;;;;5085190;28;20040;-80
2023/03/06 05:37:50;;;;;;;4.68;3.00;;;8.70;63.50;;;;;;5085785;28;20032;-80
2023/03/06 05:40:17;;;;;;;4.78;3.10;;;8.60;63.30;;;;;;5066122;28;20055;-80
2023/03/06 05:42:43;;;;;;;4.43;2.75;;;8.70;63.20;;;;;;5084037;28;20653;-80
2023/03/06 05:45:10;;;;;;;4.15;2.75;;;8.70;63.00;;;;;;5085617;28;20074;-81
2023/03/06 05:47:36;;;;;;;4.15;2.90;;;8.70;62.90;;;;;;5066109;28;20039;-80
2023/03/06 05:50:03;;;;;;;5.50;2.67;;;8.70;62.80;;;;;;5049680;28;20036;-80
2023/03/06 05:52:29;;;;;;;4.93;3.33;;;8.70;62.60;;;;;;5066372;28;20075;-80
2023/03/06 05:54:55;;;;;;;3.30;2.72;;;8.70;62.50;;;;;;5084391;28;20076;-79
2023/03/06 05:57:22;;;;;;;5.40;2.95;;;8.70;62.40;;;;;;5049233;28;20032;-79
2023/03/06 05:59:49;;;;;;;7.75;4.78;;;8.70;62.20;;;;;;5066208;28;20039;-80
2023/03/06 06:02:16;;;;;;;6.97;4.40;;;8.70;62.10;;;;;;5078465;28;20127;-80
2023/03/06 06:04:42;;;;;;;4.93;4.00;;;8.70;62.00;;;;;;5083072;28;20055;-81
2023/03/06 06:07:12;;;;;;;4.63;3.30;;;8.70;62.00;;;;;;5082856;28;20111;-74
2023/03/06 06:09:38;;;;;;;4.57;3.22;;;8.80;62.80;;;;;;5084145;28;20047;-80
2023/03/06 06:12:05;;;;;;;6.25;3.13;;;8.80;63.70;;;;;;5063101;28;20038;-78
2023/03/06 06:14:33;;;;;;;4.13;3.33;;;8.80;62.30;;;;;;5066344;28;20028;-77
2023/03/06 06:16:59;;;;;;;5.47;3.67;;;8.70;60.10;;;;;;5083293;28;20155;-77
2023/03/06 06:19:28;;;;;;;6.70;3.97;;;8.70;59.10;;;;;;5084212;28;20111;-77
2023/03/06 06:21:54;;;;;;;6.00;3.40;;;8.60;58.40;;;;;;5081259;28;20376;-77
2023/03/06 06:24:25;;;;;;;4.72;4.03;;;8.50;58.40;;;;;;5080379;28;20032;-76
2023/03/06 06:26:56;;;;;;;6.13;3.70;;;8.40;58.50;;;;;;5062497;28;20131;-76
2023/03/06 06:29:23;;;;;;;5.10;4.13;;;8.30;58.60;;;;;;5081525;28;20040;-77
2023/03/06 06:31:49;;;;;;;4.35;3.35;;;8.20;58.60;;;;;;5083593;28;20039;-77
2023/03/06 06:34:15;;;;;;;4.72;3.40;;;8.10;58.70;;;;;;5084609;28;20066;-76
2023/03/06 06:36:41;;;;;;;4.13;3.50;;;8.10;58.60;;;;;;5062584;28;20044;-77
2023/03/06 06:39:09;;;;;;;5.88;4.15;;;8.00;59.10;;;;;;5066140;28;20032;-76
2023/03/06 06:41:35;;;;;;;4.57;3.70;;;7.90;59.20;;;;;;5065180;28;20119;-75
2023/03/06 06:44:06;;;;;;;4.57;3.30;;;7.90;59.20;;;;;;5087086;28;20039;-74
2023/03/06 06:46:33;;;;;;;3.85;3.05;;;7.80;59.40;;;;;;5085223;28;20116;-74
2023/03/06 06:49:01;;;;;;;4.00;3.55;;;7.80;59.60;;;;;;5086980;28;20974;-76
2023/03/06 06:51:31;;;;;;;5.45;3.45;;;7.70;60.00;;;;;;5067602;28;20031;-75
2023/03/06 06:53:58;;;;;;;3.55;2.95;;;7.70;60.00;;;;;;5086102;28;20024;-76
2023/03/06 06:56:24;;;;;;;3.90;3.00;;;7.60;60.40;;;;;;5084775;28;20069;-75
2023/03/06 06:58:58;;;;;;;4.55;3.10;;;7.60;60.20;;;;;;5068985;28;20036;-75
2023/03/06 07:01:24;;;;;;;4.28;3.53;;;7.50;60.10;;;;;;5086314;28;20091;-75
2023/03/06 07:03:50;;;;;;;3.97;3.53;;;7.50;60.20;;;;;;5087257;28;20040;-75
2023/03/06 07:06:16;;;;;;;5.13;3.00;;;7.50;60.10;;;;;;5069807;28;20028;-74
2023/03/06 07:08:42;;;;;;;3.42;3.10;;;7.40;60.00;;;;;;5085699;28;20036;-74
2023/03/06 07:11:15;;;;;;;3.83;3.40;;;7.40;59.90;;;;;;5085849;28;20266;-74
2023/03/06 07:13:42;;;;;;;6.07;3.30;;;7.40;59.80;;;;;;5068447;28;20056;-74
2023/03/06 07:16:08;;;;;;;3.63;3.25;;;7.30;59.70;;;;;;5085917;28;20050;-75
2023/03/06 07:18:34;;;;;;;3.78;2.92;;;7.30;59.80;;;;;;5085676;28;20036;-75
2023/03/06 07:20:59;;;;;;;6.13;3.42;;;7.30;60.00;;;;;;5087313;28;20053;-74
2023/03/06 07:23:26;;;;;;;6.18;3.30;;;7.20;59.90;;;;;;5086346;28;20036;-75
2023/03/06 07:25:55;;;;;;;4.78;3.33;;;7.20;59.90;;;;;;5067916;28;20070;-74
2023/03/06 07:28:21;;;;;;;6.05;3.30;;;7.20;59.70;;;;;;5084178;28;20044;-74
2023/03/06 07:30:47;;;;;;;6.05;3.97;;;7.10;59.70;;;;;;5066010;28;20583;-74
2023/03/06 07:33:15;;;;;;;6.63;3.55;;;7.10;59.80;;;;;;5067517;28;20098;-74
2023/03/06 07:35:41;;;;;;;5.18;3.47;;;7.10;59.90;;;;;;5066598;28;20048;-74
2023/03/06 07:38:08;;;;;;;5.18;3.83;;;7.10;59.60;;;;;;5064956;28;20423;-74
2023/03/06 07:40:34;;;;;;;6.63;3.17;;;7.00;59.60;;;;;;5086668;28;20524;-74
2023/03/06 07:43:00;;;;;;;4.68;2.65;;;7.00;59.20;;;;;;5068861;28;20043;-74
2023/03/06 07:45:34;;;;;;;5.15;3.50;;;7.00;59.40;;;;;;5049725;28;20394;-75
2023/03/06 07:48:00;;;;;;;4.30;2.75;;;7.00;59.50;;;;;;5087276;28;20038;-74
2023/03/06 07:50:26;;;;;;;5.18;2.85;;;6.90;59.50;;;;;;5086477;28;20039;-73
2023/03/06 07:52:52;;;;;;;3.60;2.75;;;6.90;59.70;;;;;;5085839;28;20089;-73
2023/03/06 07:55:19;;;;;;;3.20;2.65;;;6.90;59.70;;;;;;5084929;28;20040;-73
2023/03/06 07:57:45;;;;;;;5.38;3.03;;;6.80;59.50;;;;;;5065041;28;20130;-73
2023/03/06 08:00:14;;;;;;;3.78;2.65;;;6.80;59.60;;;;;;5068747;28;20093;-73
2023/03/06 08:02:41;;;;;;;3.47;2.60;;;6.80;59.70;;;;;;5084992;28;20035;-73
2023/03/06 08:05:09;;;;;;;3.67;2.53;;;6.80;59.80;;;;;;5066918;28;20035;-74
2023/03/06 08:07:35;;;;;;;4.05;2.88;;;6.80;59.70;;;;;;5085070;28;20039;-73
2023/03/06 08:10:01;;;;;;;4.22;2.53;;;6.80;59.70;;;;;;5068008;28;20036;-73
2023/03/06 08:12:27;;;;;;;3.67;2.28;;;6.80;59.80;;;;;;5050950;28;20429;-73
2023/03/06 08:14:52;;;;;;;2.50;2.30;;;6.80;60.00;;;;;;5050735;28;20028;-73
2023/03/06 08:17:18;;;;;;;3.03;2.45;;;6.80;59.90;;;;;;5067429;28;20080;-73
2023/03/06 08:19:44;;;;;;;4.00;2.40;;;6.80;59.70;;;;;;5083662;28;20028;-74
2023/03/06 08:22:12;;;;;;;3.20;2.40;;;6.80;59.50;;;;;;5066781;28;20036;-73
2023/03/06 08:24:38;;;;;;;5.18;2.22;;;6.80;59.30;;;;;;5085650;28;20621;-74
2023/03/06 08:27:04;;;;;;;3.38;2.58;;;6.80;59.40;;;;;;5085859;28;20123;-74
2023/03/06 08:29:30;;;;;;;3.50;2.45;;;6.80;59.20;;;;;;5067275;28;20168;-74
2023/03/06 08:31:56;;;;;;;3.38;2.45;;;6.80;59.00;;;;;;5084469;28;20073;-74
2023/03/06 08:34:25;;;;;;;6.63;2.55;;;6.80;59.00;;;;;;5084283;28;20070;-74
2023/03/06 08:36:51;;;;;;;3.50;2.05;;;6.80;58.80;;;;;;5086488;28;20176;-74
2023/03/06 08:39:18;;;;;;;2.40;2.00;;;6.80;58.60;;;;;;5085494;28;20032;-73
2023/03/06 08:41:44;;;;;;;2.15;1.80;;;6.80;58.30;;;;;;5064695;28;20119;-74
2023/03/06 08:44:10;;;;;;;4.18;2.20;;;6.80;58.40;;;;;;5085188;28;20118;-74
2023/03/06 08:46:37;;;;;;;3.53;2.58;;;6.80;58.10;;;;;;5084712;28;20491;-74
2023/03/06 08:49:03;;;;;;;3.47;1.90;;;6.80;58.10;;;;;;5083698;28;20036;-74
2023/03/06 08:51:30;;;;;;;3.28;2.03;;;6.80;58.30;;;;;;5066098;28;20608;-74
2023/03/06 08:53:56;;;;;;;3.67;1.80;;;6.80;57.90;;;;;;5084814;28;20030;-73
2023/03/06 08:56:24;;;;;;;3.47;2.22;;;6.80;58.00;;;;;;5066010;28;20048;-74
2023/03/06 08:58:51;;;;;;;2.53;1.73;;;6.80;58.10;;;;;;5084895;28;20047;-74
2023/03/06 09:01:25;;;;;;;2.15;1.50;;;6.80;57.80;;;;;;5084633;28;20033;-73
2023/03/06 09:03:56;;;;;;;3.67;1.90;;;6.80;58.10;;;;;;5084020;28;20036;-74
2023/03/06 09:06:24;;;;;;;3.28;1.73;;;6.80;57.80;;;;;;5082680;28;20667;-73
2023/03/06 09:08:51;;;;;;;2.97;2.20;;;6.70;57.20;;;;;;5082178;28;20027;-74
2023/03/06 09:11:23;;;;;;;2.88;2.20;;;6.70;57.10;;;;;;5084277;28;20039;-75
2023/03/06 09:13:49;;;;;;;3.40;2.20;;;6.70;57.30;;;;;;5081721;28;20089;-74
2023/03/06 09:16:15;;;;;;;11.13;5.75;;;6.60;58.00;;;;;;5082795;28;20036;-74
2023/03/06 09:18:41;;;;;;;7.45;4.53;;;6.60;57.90;;;;;;5084712;28;20657;-74
2023/03/06 09:21:08;;;;;;;5.53;3.65;;;6.50;58.10;;;;;;5082415;28;20044;-74
2023/03/06 09:23:35;;;;;;;6.40;3.92;;;6.50;58.00;;;;;;5082110;28;20036;-74
2023/03/06 09:26:02;;;;;;;4.50;2.97;;;6.50;57.90;;;;;;5084154;28;20029;-74
2023/03/06 09:28:28;;;;;;;6.05;3.47;;;6.50;58.40;;;;;;5062765;28;20038;-74
2023/03/06 09:30:54;;;;;;;4.47;3.08;;;6.40;57.70;;;;;;5083149;28;20036;-74
2023/03/06 09:33:20;;;;;;;4.72;2.92;;;6.40;57.70;;;;;;5065667;28;21569;-74
2023/03/06 09:35:52;;;;;;;5.60;2.75;;;6.50;57.70;;;;;;5083432;28;20028;-74
2023/03/06 09:38:23;;;;;;;2.65;1.98;;;6.40;57.40;;;;;;5080359;28;20036;-75
2023/03/06 09:41:05;;;;;;;2.22;1.70;;;6.40;58.50;;;;;;5082399;28;20043;-75
2023/03/06 09:43:37;;;;;;;1.83;1.70;;;6.50;59.10;;;;;;5084028;28;20113;-75
2023/03/06 09:46:15;;;;;;;1.95;1.30;;;6.60;59.90;;;;;;5083790;28;20064;-74
2023/03/06 09:49:09;;;;;;;2.75;1.48;;;6.70;60.30;;;;;;5081736;28;20051;-75
2023/03/06 09:52:19;;;;;;;2.05;1.27;;;6.80;61.30;;;;;;5061404;28;20074;-75
2023/03/06 09:54:52;;;;;;;1.15;0.98;;;6.90;61.40;;;;;;5000985;28;20038;-75
2023/03/06 09:57:26;;;;;;;2.08;1.10;;;7.00;62.10;;;;;;5002936;28;20100;-75
2023/03/06 09:59:56;;;;;;;1.20;1.10;;;7.10;62.40;;;;;;5001752;28;20488;-74
2023/03/06 10:02:40;;;;;;;1.10;0.80;;;7.20;62.50;;;;;;4999671;28;20192;-75
2023/03/06 10:05:20;;;;;;;1.50;0.90;;;7.30;62.30;;;;;;4999134;28;20606;-74
2023/03/06 10:07:59;;;;;;;1.00;0.90;;;7.40;62.70;;;;;;5001177;28;20034;-75
2023/03/06 10:10:34;;;;;;;1.00;0.90;;;7.50;62.80;;;;;;5000950;28;20034;-75
2023/03/06 10:13:27;;;;;;;3.03;1.10;;;7.50;62.90;;;;;;5001305;28;20361;-75
2023/03/06 10:16:03;;;;;;;1.33;1.13;;;7.60;62.90;;;;;;4999350;28;20045;-75
2023/03/06 10:18:29;;;;;;;2.17;1.08;;;7.70;63.30;;;;;;5003269;28;20053;-76
2023/03/06 10:21:20;;;;;;;1.35;0.85;;;7.70;63.40;;;;;;5004954;28;20092;-75
2023/03/06 10:24:24;;;;;;;1.63;0.98;;;7.80;63.50;;;;;;5004246;28;20034;-76
2023/03/06 10:27:15;;;;;;;2.40;0.90;;;7.90;63.20;;;;;;5004860;28;20026;-75
2023/03/06 10:29:51;;;;;;;1.15;0.90;;;8.00;63.50;;;;;;5004166;28;20030;-75
2023/03/06 10:32:42;;;;;;;1.95;1.02;;;8.00;63.80;;;;;;5079765;28;20418;-72
2023/03/06 10:35:17;;;;;;;1.92;1.00;;;8.10;63.50;;;;;;5066104;28;20036;-73
2023/03/06 10:37:43;;;;;;;1.65;1.25;;;8.20;63.70;;;;;;5086444;28;20044;-74
2023/03/06 10:40:18;;;;;;;2.47;0.95;;;8.20;63.60;;;;;;5086545;28;20036;-74
2023/03/06 10:42:44;;;;;;;1.10;0.88;;;8.30;67.40;;;;;;5085670;28;20048;-74
2023/03/06 10:45:16;;;;;;;1.60;0.90;;;8.40;65.80;;;;;;5087189;28;20035;-74
2023/03/06 10:47:43;;;;;;;1.10;0.90;;;8.40;66.00;;;;;;5083513;28;20123;-74
2023/03/06 10:50:31;;;;;;;1.02;0.90;;;8.50;65.70;;;;;;5086773;28;20266;-73
2023/03/06 10:53:03;;;;;;;1.35;1.00;;;8.60;65.00;;;;;;5067030;28;20032;-73
2023/03/06 10:55:35;;;;;;;1.20;1.10;;;8.60;64.80;;;;;;5084847;28;20040;-74
2023/03/06 10:58:37;;;;;;;1.27;1.00;;;8.70;64.50;;;;;;5082771;28;20036;-74
2023/03/06 11:01:20;;;;;;;1.58;1.05;;;8.70;63.80;;;;;;5004818;28;20643;-74
2023/03/06 11:03:47;;;;;;;2.20;0.95;;;8.80;63.60;;;;;;5004809;28;20592;-74
2023/03/06 11:06:33;;;;;;;1.38;1.00;;;8.90;71.20;;;;;;5005582;28;20034;-74
2023/03/06 11:09:17;;;;;;;1.13;0.80;;;9.00;65.80;;;;;;5007043;28;20104;-74
2023/03/06 11:11:43;;;;;;;2.10;0.68;;;9.10;63.60;;;;;;5004407;28;20045;-74
2023/03/06 11:14:21;;;;;;;1.58;0.80;;;9.10;62.50;;;;;;5004828;28;20038;-75
2023/03/06 11:16:52;;;;;;;0.75;0.75;;;9.20;61.90;;;;;;5004747;28;20038;-74
2023/03/06 11:19:27;;;;;;;1.90;0.63;;;9.20;61.60;;;;;;5004252;28;20045;-75
2023/03/06 11:22:17;;;;;;;1.40;0.70;;;9.20;61.30;;;;;;4988582;28;20117;-75
2023/03/06 11:24:47;;;;;;;0.88;0.70;;;9.30;61.30;;;;;;5003908;28;20049;-75
2023/03/06 11:27:33;;;;;;;1.60;0.82;;;9.30;60.80;;;;;;5004980;28;20403;-75
2023/03/06 11:30:04;;;;;;;1.02;0.70;;;9.30;60.80;;;;;;5003683;28;20089;-75
2023/03/06 11:32:35;;;;;;;1.85;0.88;;;9.30;61.50;;;;;;5004680;28;20134;-74
2023/03/06 11:35:21;;;;;;;4.00;0.52;;;9.40;61.70;;;;;;5043134;28;20036;-75
2023/03/06 11:38:07;;;;;;;;;;;9.40;61.80;;;;;;5084608;28;20126;-74
2023/03/06 11:40:42;;;;;;;0.50;0.30;;;9.40;61.80;;;;;;5072488;28;20369;-75
2023/03/06 11:43:53;;;;;;;0.40;0.40;;;9.40;61.90;;;;;;5085724;28;20032;-75
2023/03/06 11:46:38;;;;;;;1.02;0.40;;;9.50;61.90;;;;;;4986878;28;20425;-74
2023/03/06 11:49:17;;;;;;;0.30;0.30;;;9.40;61.90;;;;;;4986583;28;20656;-74
2023/03/06 11:51:49;;;;;;;0.73;0.60;;;9.40;62.00;;;;;;4987921;28;20050;-74
2023/03/06 11:54:15;;;;;;;0.70;0.50;;;9.50;62.00;;;;;;4988752;28;20046;-74
2023/03/06 11:57:11;;;;;;;1.17;0.30;;;9.50;62.20;;;;;;4987504;28;20724;-74
2023/03/06 12:00:02;;;;;;;1.88;0.40;;;9.50;62.10;;;;;;4987076;28;20096;-74
2023/03/06 12:02:48;;;;;;;0.85;0.50;;;9.50;62.10;;;;;;4972890;28;20039;-74
2023/03/06 12:05:22;;;;;;;0.77;0.45;;;9.50;62.00;;;;;;4987255;28;20433;-76
2023/03/06 12:08:16;;;;;;;0.30;0.30;;;9.50;62.10;;;;;;4972613;28;20704;-74
2023/03/06 12:10:51;;;;;;;0.40;0.40;;;9.50;62.00;;;;;;4988169;28;20049;-76
2023/03/06 12:13:32;;;;;;;0.82;0.50;;;9.50;62.00;;;;;;4987798;28;20517;-73
2023/03/06 12:16:28;;;;;;;1.15;0.57;;;9.50;62.10;;;;;;4987607;28;20070;-75
2023/03/06 12:18:54;;;;;;;;;;;9.50;62.00;;;;;;4970588;28;20509;-74
2023/03/06 12:21:49;;;;;;;1.95;1.02;;;9.50;62.10;;;;;;5060531;28;19923;-74
2023/03/06 12:24:34;;;;;;;0.95;0.52;;;9.50;62.00;;;;;;5064436;28;20068;-73
2023/03/06 12:39:47;;;;;;;;;;;9.50;61.40;;;;;;5038167;27;1402226;-73
2023/03/06 12:42:48;;;;;;;1.73;1.15;;;9.60;62.40;;;;;;5061720;28;19928;-74
2023/03/06 12:45:30;;;;;;;1.75;0.88;;;9.60;61.60;;;;;;5049257;28;20039;-74
2023/03/06 12:47:57;;;;;;;2.28;1.10;;;9.70;61.40;;;;;;5056574;28;20083;-74
2023/03/06 12:50:27;;;;;;;1.83;1.02;;;9.70;61.30;;;;;;5073315;28;20028;-74
2023/03/06 12:52:55;;;;;;;1.95;1.35;;;9.70;61.20;;;;;;5073699;28;20067;-77
2023/03/06 12:55:22;;;;;;;1.10;0.80;;;9.70;61.00;;;;;;5058872;28;20047;-76
2023/03/06 12:57:49;;;;;;;2.10;1.13;;;9.70;60.90;;;;;;5062231;28;20453;-75
2023/03/06 13:00:33;;;;;;;2.25;1.20;;;9.70;60.80;;;;;;5085814;28;20089;-76
2023/03/06 13:03:20;;;;;;;1.45;0.90;;;9.70;60.80;;;;;;5082708;28;20035;-76
2023/03/06 13:06:10;;;;;;;1.73;0.95;;;9.70;60.60;;;;;;5062267;28;20028;-76
2023/03/06 13:09:00;;;;;;;1.27;1.02;;;9.70;60.50;;;;;;5074310;28;20119;-76
2023/03/06 13:12:06;;;;;;;1.20;0.88;;;9.70;60.50;;;;;;5056933;28;20394;-76
2023/03/06 13:14:32;;;;;;;3.28;1.00;;;9.70;60.50;;;;;;5068569;28;20049;-76
2023/03/06 13:17:35;;;;;;;1.23;0.80;;;9.70;60.40;;;;;;5050217;28;20025;-76
2023/03/06 13:20:34;;;;;;;3.75;1.05;;;9.80;60.50;;;;;;5003095;28;20586;-77
2023/03/06 13:23:30;;;;;;;2.00;1.15;;;9.70;60.40;;;;;;5005992;28;20581;-76
2023/03/06 13:25:58;;;;;;;1.65;0.85;;;9.80;60.30;;;;;;4982879;28;20034;-77
2023/03/06 13:28:47;;;;;;;1.38;1.17;;;9.80;60.30;;;;;;5000685;28;20062;-76
2023/03/06 13:31:24;;;;;;;1.33;0.93;;;9.80;60.30;;;;;;5002463;28;20678;-77